sensor_id;sensor_type;location;lat;lon;timestamp;P1;durP1;ratioP1;P2;durP2;ratioP2
45728;SDS011;31439;53.512;10.206;2022-12-29T00:01:08;4.10;;;2.72;;
45728;SDS011;31439;53.512;10.206;2022-12-29T00:03:35;4.25;;;2.70;;
45728;SDS011;31439;53.512;10.206;2022-12-29T00:06:03;3.70;;;2.70;;
45728;SDS011;31439;53.512;10.206;2022-12-29T00:08:28;4.53;;;2.95;;
45728;SDS011;31439;53.512;10.206;2022-12-29T00:11:12;5.15;;;2.78;;
45728;SDS011;31439;53.512;10.206;2022-12-29T00:13:40;4.30;;;2.70;;
45728;SDS011;31439;53.512;10.206;2022-12-29T00:16:24;3.83;;;2.53;;
45728;SDS011;31439;53.512;10.206;2022-12-29T00:18:50;4.95;;;2.75;;
45728;SDS011;31439;53.512;10.206;2022-12-29T00:21:18;4.28;;;2.78;;
45728;SDS011;31439;53.512;10.206;2022-12-29T00:24:04;4.45;;;2.65;;
45728;SDS011;31439;53.512;10.206;2022-12-29T00:29:46;3.95;;;2.80;;
45728;SDS011;31439;53.512;10.206;2022-12-29T00:32:30;4.60;;;3.33;;
45728;SDS011;31439;53.512;10.206;2022-12-29T00:35:21;5.85;;;2.92;;
45728;SDS011;31439;53.512;10.206;2022-12-29T00:37:50;3.72;;;2.80;;
45728;SDS011;31439;53.512;10.206;2022-12-29T00:40:35;4.20;;;2.97;;
45728;SDS011;31439;53.512;10.206;2022-12-29T00:43:19;5.45;;;2.78;;
45728;SDS011;31439;53.512;10.206;2022-12-29T00:46:06;4.32;;;2.63;;
45728;SDS011;31439;53.512;10.206;2022-12-29T00:48:32;4.13;;;2.80;;
45728;SDS011;31439;53.512;10.206;2022-12-29T00:51:16;3.95;;;2.75;;
45728;SDS011;31439;53.512;10.206;2022-12-29T00:53:42;4.43;;;2.70;;
45728;SDS011;31439;53.512;10.206;2022-12-29T00:56:07;4.32;;;2.97;;
45728;SDS011;31439;53.512;10.206;2022-12-29T00:58:33;4.32;;;3.10;;
45728;SDS011;31439;53.512;10.206;2022-12-29T01:01:03;3.38;;;2.67;;
45728;SDS011;31439;53.512;10.206;2022-12-29T01:03:29;3.55;;;2.80;;
45728;SDS011;31439;53.512;10.206;2022-12-29T01:05:56;4.43;;;2.58;;
45728;SDS011;31439;53.512;10.206;2022-12-29T01:08:22;3.35;;;2.67;;
45728;SDS011;31439;53.512;10.206;2022-12-29T01:10:57;5.40;;;2.90;;
45728;SDS011;31439;53.512;10.206;2022-12-29T01:13:28;3.50;;;2.42;;
45728;SDS011;31439;53.512;10.206;2022-12-29T01:15:54;3.60;;;2.70;;
45728;SDS011;31439;53.512;10.206;2022-12-29T01:18:20;6.03;;;3.15;;
45728;SDS011;31439;53.512;10.206;2022-12-29T01:20:46;3.40;;;2.50;;
45728;SDS011;31439;53.512;10.206;2022-12-29T01:23:12;5.63;;;2.80;;
45728;SDS011;31439;53.512;10.206;2022-12-29T01:25:38;3.85;;;2.80;;
45728;SDS011;31439;53.512;10.206;2022-12-29T01:28:04;6.43;;;3.38;;
45728;SDS011;31439;53.512;10.206;2022-12-29T01:30:32;3.58;;;2.83;;
45728;SDS011;31439;53.512;10.206;2022-12-29T01:32:58;3.92;;;2.92;;
45728;SDS011;31439;53.512;10.206;2022-12-29T01:35:23;3.95;;;2.78;;
45728;SDS011;31439;53.512;10.206;2022-12-29T01:37:49;3.80;;;2.85;;
45728;SDS011;31439;53.512;10.206;2022-12-29T01:40:15;4.68;;;3.15;;
45728;SDS011;31439;53.512;10.206;2022-12-29T01:42:41;4.95;;;3.08;;
45728;SDS011;31439;53.512;10.206;2022-12-29T01:45:14;5.15;;;3.17;;
45728;SDS011;31439;53.512;10.206;2022-12-29T01:47:43;4.90;;;3.38;;
45728;SDS011;31439;53.512;10.206;2022-12-29T01:50:26;4.30;;;3.17;;
45728;SDS011;31439;53.512;10.206;2022-12-29T01:53:04;5.57;;;3.28;;
45728;SDS011;31439;53.512;10.206;2022-12-29T01:55:40;4.22;;;3.20;;
45728;SDS011;31439;53.512;10.206;2022-12-29T01:58:11;4.47;;;3.70;;
45728;SDS011;31439;53.512;10.206;2022-12-29T02:00:44;3.97;;;3.50;;
45728;SDS011;31439;53.512;10.206;2022-12-29T02:03:14;4.45;;;3.72;;
45728;SDS011;31439;53.512;10.206;2022-12-29T02:05:50;5.47;;;3.88;;
45728;SDS011;31439;53.512;10.206;2022-12-29T02:10:44;5.35;;;4.10;;
45728;SDS011;31439;53.512;10.206;2022-12-29T02:13:10;5.03;;;3.70;;
45728;SDS011;31439;53.512;10.206;2022-12-29T02:15:43;6.25;;;4.03;;
45728;SDS011;31439;53.512;10.206;2022-12-29T02:24:00;4.25;;;3.30;;
45728;SDS011;31439;53.512;10.206;2022-12-29T02:41:06;5.68;;;3.40;;
45728;SDS011;31439;53.512;10.206;2022-12-29T02:43:43;6.25;;;3.20;;
45728;SDS011;31439;53.512;10.206;2022-12-29T02:52:36;4.57;;;2.97;;
45728;SDS011;31439;53.512;10.206;2022-12-29T02:55:24;3.75;;;3.10;;
45728;SDS011;31439;53.512;10.206;2022-12-29T02:58:03;4.82;;;3.10;;
45728;SDS011;31439;53.512;10.206;2022-12-29T03:00:47;4.97;;;2.88;;
45728;SDS011;31439;53.512;10.206;2022-12-29T03:03:24;5.55;;;3.30;;
45728;SDS011;31439;53.512;10.206;2022-12-29T03:06:30;5.15;;;3.17;;
45728;SDS011;31439;53.512;10.206;2022-12-29T03:09:09;3.50;;;2.75;;
45728;SDS011;31439;53.512;10.206;2022-12-29T03:11:58;6.60;;;3.00;;
45728;SDS011;31439;53.512;10.206;2022-12-29T03:14:47;4.22;;;3.22;;
45728;SDS011;31439;53.512;10.206;2022-12-29T03:17:48;4.82;;;3.10;;
45728;SDS011;31439;53.512;10.206;2022-12-29T03:20:25;5.55;;;3.20;;
45728;SDS011;31439;53.512;10.206;2022-12-29T03:25:32;3.53;;;2.80;;
45728;SDS011;31439;53.512;10.206;2022-12-29T03:28:07;3.88;;;2.88;;
45728;SDS011;31439;53.512;10.206;2022-12-29T03:30:38;3.50;;;2.50;;
45728;SDS011;31439;53.512;10.206;2022-12-29T03:33:10;4.82;;;2.45;;
45728;SDS011;31439;53.512;10.206;2022-12-29T03:35:41;4.13;;;2.53;;
45728;SDS011;31439;53.512;10.206;2022-12-29T03:38:44;3.28;;;2.67;;
45728;SDS011;31439;53.512;10.206;2022-12-29T03:41:08;3.42;;;2.17;;
45728;SDS011;31439;53.512;10.206;2022-12-29T03:43:37;4.55;;;2.72;;
45728;SDS011;31439;53.512;10.206;2022-12-29T03:46:02;3.75;;;2.40;;
45728;SDS011;31439;53.512;10.206;2022-12-29T03:48:28;4.65;;;2.53;;
45728;SDS011;31439;53.512;10.206;2022-12-29T03:50:54;3.70;;;2.50;;
45728;SDS011;31439;53.512;10.206;2022-12-29T03:53:19;4.13;;;2.50;;
45728;SDS011;31439;53.512;10.206;2022-12-29T03:55:46;4.13;;;2.50;;
45728;SDS011;31439;53.512;10.206;2022-12-29T03:58:12;4.97;;;2.35;;
45728;SDS011;31439;53.512;10.206;2022-12-29T04:00:38;4.40;;;2.70;;
45728;SDS011;31439;53.512;10.206;2022-12-29T04:03:03;3.25;;;2.40;;
45728;SDS011;31439;53.512;10.206;2022-12-29T04:05:31;3.13;;;2.47;;
45728;SDS011;31439;53.512;10.206;2022-12-29T04:08:00;3.88;;;2.10;;
45728;SDS011;31439;53.512;10.206;2022-12-29T04:10:32;3.33;;;2.28;;
45728;SDS011;31439;53.512;10.206;2022-12-29T04:13:05;3.45;;;2.20;;
45728;SDS011;31439;53.512;10.206;2022-12-29T04:15:36;3.40;;;2.15;;
45728;SDS011;31439;53.512;10.206;2022-12-29T04:18:05;2.92;;;2.20;;
45728;SDS011;31439;53.512;10.206;2022-12-29T04:20:35;4.43;;;2.10;;
45728;SDS011;31439;53.512;10.206;2022-12-29T04:23:20;3.72;;;2.10;;
45728;SDS011;31439;53.512;10.206;2022-12-29T04:25:45;6.10;;;2.00;;
45728;SDS011;31439;53.512;10.206;2022-12-29T04:28:15;3.00;;;1.92;;
45728;SDS011;31439;53.512;10.206;2022-12-29T04:30:41;2.83;;;1.80;;
45728;SDS011;31439;53.512;10.206;2022-12-29T04:33:10;3.38;;;2.00;;
45728;SDS011;31439;53.512;10.206;2022-12-29T04:35:36;2.55;;;1.80;;
45728;SDS011;31439;53.512;10.206;2022-12-29T04:38:02;3.22;;;2.00;;
45728;SDS011;31439;53.512;10.206;2022-12-29T04:40:28;3.10;;;2.05;;
45728;SDS011;31439;53.512;10.206;2022-12-29T04:42:53;2.90;;;1.95;;
45728;SDS011;31439;53.512;10.206;2022-12-29T04:45:19;2.38;;;1.83;;
45728;SDS011;31439;53.512;10.206;2022-12-29T04:47:45;3.70;;;2.10;;
45728;SDS011;31439;53.512;10.206;2022-12-29T04:50:11;3.72;;;1.90;;
45728;SDS011;31439;53.512;10.206;2022-12-29T04:52:36;2.58;;;1.80;;
45728;SDS011;31439;53.512;10.206;2022-12-29T04:55:02;2.92;;;2.00;;
45728;SDS011;31439;53.512;10.206;2022-12-29T04:57:28;4.00;;;2.00;;
45728;SDS011;31439;53.512;10.206;2022-12-29T04:59:54;2.63;;;1.70;;
45728;SDS011;31439;53.512;10.206;2022-12-29T05:02:20;3.10;;;1.80;;
45728;SDS011;31439;53.512;10.206;2022-12-29T05:04:45;3.03;;;1.90;;
45728;SDS011;31439;53.512;10.206;2022-12-29T05:07:11;2.20;;;1.55;;
45728;SDS011;31439;53.512;10.206;2022-12-29T05:09:37;3.35;;;1.73;;
45728;SDS011;31439;53.512;10.206;2022-12-29T05:12:03;2.38;;;1.50;;
45728;SDS011;31439;53.512;10.206;2022-12-29T05:14:29;2.38;;;1.60;;
45728;SDS011;31439;53.512;10.206;2022-12-29T05:16:54;2.00;;;1.60;;
45728;SDS011;31439;53.512;10.206;2022-12-29T05:19:20;2.83;;;1.50;;
45728;SDS011;31439;53.512;10.206;2022-12-29T05:21:45;2.25;;;1.55;;
45728;SDS011;31439;53.512;10.206;2022-12-29T05:24:11;4.13;;;1.60;;
45728;SDS011;31439;53.512;10.206;2022-12-29T05:26:37;3.78;;;1.70;;
45728;SDS011;31439;53.512;10.206;2022-12-29T05:29:02;2.90;;;1.80;;
45728;SDS011;31439;53.512;10.206;2022-12-29T05:31:28;3.53;;;1.98;;
45728;SDS011;31439;53.512;10.206;2022-12-29T05:33:54;2.30;;;1.77;;
45728;SDS011;31439;53.512;10.206;2022-12-29T05:36:19;2.80;;;2.00;;
45728;SDS011;31439;53.512;10.206;2022-12-29T05:38:45;3.88;;;1.88;;
45728;SDS011;31439;53.512;10.206;2022-12-29T05:41:10;2.38;;;1.65;;
45728;SDS011;31439;53.512;10.206;2022-12-29T05:43:36;3.35;;;1.90;;
45728;SDS011;31439;53.512;10.206;2022-12-29T05:46:02;2.05;;;1.70;;
45728;SDS011;31439;53.512;10.206;2022-12-29T05:48:28;2.45;;;1.80;;
45728;SDS011;31439;53.512;10.206;2022-12-29T05:50:54;3.55;;;1.80;;
45728;SDS011;31439;53.512;10.206;2022-12-29T05:53:19;3.30;;;1.90;;
45728;SDS011;31439;53.512;10.206;2022-12-29T05:55:48;2.10;;;1.52;;
45728;SDS011;31439;53.512;10.206;2022-12-29T05:58:14;2.40;;;1.70;;
45728;SDS011;31439;53.512;10.206;2022-12-29T06:00:40;2.40;;;1.55;;
45728;SDS011;31439;53.512;10.206;2022-12-29T06:03:06;2.17;;;1.60;;
45728;SDS011;31439;53.512;10.206;2022-12-29T06:05:32;3.60;;;1.50;;
45728;SDS011;31439;53.512;10.206;2022-12-29T06:07:57;2.58;;;1.70;;
45728;SDS011;31439;53.512;10.206;2022-12-29T06:10:23;3.22;;;1.40;;
45728;SDS011;31439;53.512;10.206;2022-12-29T06:12:48;2.15;;;1.58;;
45728;SDS011;31439;53.512;10.206;2022-12-29T06:15:14;2.30;;;1.50;;
45728;SDS011;31439;53.512;10.206;2022-12-29T06:17:40;3.08;;;1.55;;
45728;SDS011;31439;53.512;10.206;2022-12-29T06:20:06;3.17;;;1.45;;
45728;SDS011;31439;53.512;10.206;2022-12-29T06:22:33;4.00;;;1.52;;
45728;SDS011;31439;53.512;10.206;2022-12-29T06:24:58;3.17;;;1.50;;
45728;SDS011;31439;53.512;10.206;2022-12-29T06:27:24;2.40;;;1.48;;
45728;SDS011;31439;53.512;10.206;2022-12-29T06:29:50;1.90;;;1.30;;
45728;SDS011;31439;53.512;10.206;2022-12-29T06:32:15;2.60;;;1.58;;
45728;SDS011;31439;53.512;10.206;2022-12-29T06:34:41;2.35;;;1.50;;
45728;SDS011;31439;53.512;10.206;2022-12-29T06:37:07;2.42;;;1.60;;
45728;SDS011;31439;53.512;10.206;2022-12-29T06:39:32;3.92;;;1.83;;
45728;SDS011;31439;53.512;10.206;2022-12-29T06:41:58;2.13;;;1.50;;
45728;SDS011;31439;53.512;10.206;2022-12-29T06:44:23;1.80;;;1.30;;
45728;SDS011;31439;53.512;10.206;2022-12-29T06:46:49;2.20;;;1.20;;
45728;SDS011;31439;53.512;10.206;2022-12-29T06:49:15;2.67;;;1.10;;
45728;SDS011;31439;53.512;10.206;2022-12-29T06:51:41;1.98;;;1.10;;
45728;SDS011;31439;53.512;10.206;2022-12-29T06:54:07;2.10;;;1.23;;
45728;SDS011;31439;53.512;10.206;2022-12-29T06:56:32;1.40;;;1.10;;
45728;SDS011;31439;53.512;10.206;2022-12-29T06:58:58;1.30;;;1.00;;
45728;SDS011;31439;53.512;10.206;2022-12-29T07:01:27;1.40;;;1.10;;
45728;SDS011;31439;53.512;10.206;2022-12-29T07:03:52;3.33;;;1.55;;
45728;SDS011;31439;53.512;10.206;2022-12-29T07:06:18;1.38;;;1.20;;
45728;SDS011;31439;53.512;10.206;2022-12-29T07:08:44;2.03;;;1.30;;
45728;SDS011;31439;53.512;10.206;2022-12-29T07:11:09;2.15;;;1.20;;
45728;SDS011;31439;53.512;10.206;2022-12-29T07:13:35;4.15;;;1.60;;
45728;SDS011;31439;53.512;10.206;2022-12-29T07:16:04;2.00;;;1.33;;
45728;SDS011;31439;53.512;10.206;2022-12-29T07:18:31;3.13;;;1.65;;
45728;SDS011;31439;53.512;10.206;2022-12-29T07:20:57;4.78;;;1.60;;
45728;SDS011;31439;53.512;10.206;2022-12-29T07:23:22;3.33;;;1.70;;
45728;SDS011;31439;53.512;10.206;2022-12-29T07:25:48;2.42;;;1.67;;
45728;SDS011;31439;53.512;10.206;2022-12-29T07:28:14;2.70;;;1.60;;
45728;SDS011;31439;53.512;10.206;2022-12-29T07:30:39;3.03;;;1.58;;
45728;SDS011;31439;53.512;10.206;2022-12-29T07:33:05;4.10;;;1.75;;
45728;SDS011;31439;53.512;10.206;2022-12-29T07:35:31;2.17;;;1.60;;
45728;SDS011;31439;53.512;10.206;2022-12-29T07:37:58;2.60;;;1.63;;
45728;SDS011;31439;53.512;10.206;2022-12-29T07:40:23;2.67;;;1.70;;
45728;SDS011;31439;53.512;10.206;2022-12-29T07:42:49;4.35;;;1.73;;
45728;SDS011;31439;53.512;10.206;2022-12-29T07:45:15;2.85;;;1.80;;
45728;SDS011;31439;53.512;10.206;2022-12-29T07:47:40;2.75;;;1.50;;
45728;SDS011;31439;53.512;10.206;2022-12-29T07:50:06;3.08;;;1.25;;
45728;SDS011;31439;53.512;10.206;2022-12-29T07:52:32;2.05;;;1.35;;
45728;SDS011;31439;53.512;10.206;2022-12-29T07:54:57;2.58;;;1.35;;
45728;SDS011;31439;53.512;10.206;2022-12-29T07:57:23;4.13;;;1.50;;
45728;SDS011;31439;53.512;10.206;2022-12-29T07:59:48;5.88;;;1.52;;
45728;SDS011;31439;53.512;10.206;2022-12-29T08:02:14;2.53;;;1.38;;
45728;SDS011;31439;53.512;10.206;2022-12-29T08:04:39;3.10;;;1.80;;
45728;SDS011;31439;53.512;10.206;2022-12-29T08:07:05;5.13;;;1.45;;
45728;SDS011;31439;53.512;10.206;2022-12-29T08:09:31;2.60;;;1.50;;
45728;SDS011;31439;53.512;10.206;2022-12-29T08:11:59;3.38;;;1.60;;
45728;SDS011;31439;53.512;10.206;2022-12-29T08:14:24;3.20;;;1.90;;
45728;SDS011;31439;53.512;10.206;2022-12-29T08:16:50;3.22;;;1.60;;
45728;SDS011;31439;53.512;10.206;2022-12-29T08:19:16;2.95;;;1.50;;
45728;SDS011;31439;53.512;10.206;2022-12-29T08:21:41;1.67;;;1.40;;
45728;SDS011;31439;53.512;10.206;2022-12-29T08:24:08;1.83;;;1.30;;
45728;SDS011;31439;53.512;10.206;2022-12-29T08:26:34;1.92;;;1.15;;
45728;SDS011;31439;53.512;10.206;2022-12-29T08:29:00;2.58;;;1.50;;
45728;SDS011;31439;53.512;10.206;2022-12-29T08:31:25;2.92;;;1.20;;
45728;SDS011;31439;53.512;10.206;2022-12-29T08:33:51;2.55;;;1.27;;
45728;SDS011;31439;53.512;10.206;2022-12-29T08:36:17;2.95;;;1.10;;
45728;SDS011;31439;53.512;10.206;2022-12-29T08:38:42;2.55;;;1.40;;
45728;SDS011;31439;53.512;10.206;2022-12-29T08:41:08;2.35;;;1.52;;
45728;SDS011;31439;53.512;10.206;2022-12-29T08:43:33;4.75;;;1.20;;
45728;SDS011;31439;53.512;10.206;2022-12-29T08:45:59;5.28;;;1.40;;
45728;SDS011;31439;53.512;10.206;2022-12-29T08:48:25;2.47;;;1.23;;
45728;SDS011;31439;53.512;10.206;2022-12-29T08:50:51;2.45;;;1.10;;
45728;SDS011;31439;53.512;10.206;2022-12-29T08:53:18;4.80;;;1.20;;
45728;SDS011;31439;53.512;10.206;2022-12-29T08:55:46;2.28;;;1.00;;
45728;SDS011;31439;53.512;10.206;2022-12-29T08:58:19;1.95;;;1.00;;
45728;SDS011;31439;53.512;10.206;2022-12-29T09:00:44;2.20;;;1.00;;
45728;SDS011;31439;53.512;10.206;2022-12-29T09:03:10;3.70;;;1.20;;
45728;SDS011;31439;53.512;10.206;2022-12-29T09:05:36;4.00;;;1.10;;
45728;SDS011;31439;53.512;10.206;2022-12-29T09:08:02;2.30;;;0.95;;
45728;SDS011;31439;53.512;10.206;2022-12-29T09:10:28;2.88;;;1.02;;
45728;SDS011;31439;53.512;10.206;2022-12-29T09:12:55;3.45;;;1.20;;
45728;SDS011;31439;53.512;10.206;2022-12-29T09:15:21;4.57;;;1.20;;
45728;SDS011;31439;53.512;10.206;2022-12-29T09:17:47;3.67;;;1.10;;
45728;SDS011;31439;53.512;10.206;2022-12-29T09:20:13;3.00;;;1.00;;
45728;SDS011;31439;53.512;10.206;2022-12-29T09:22:42;4.07;;;1.10;;
45728;SDS011;31439;53.512;10.206;2022-12-29T09:25:09;2.28;;;1.00;;
45728;SDS011;31439;53.512;10.206;2022-12-29T09:27:35;3.30;;;1.20;;
45728;SDS011;31439;53.512;10.206;2022-12-29T09:30:02;2.50;;;0.90;;
45728;SDS011;31439;53.512;10.206;2022-12-29T09:32:30;3.08;;;1.05;;
45728;SDS011;31439;53.512;10.206;2022-12-29T09:34:56;3.75;;;1.15;;
45728;SDS011;31439;53.512;10.206;2022-12-29T09:37:21;3.80;;;0.95;;
45728;SDS011;31439;53.512;10.206;2022-12-29T09:39:47;2.55;;;0.82;;
45728;SDS011;31439;53.512;10.206;2022-12-29T09:42:22;6.80;;;1.30;;
45728;SDS011;31439;53.512;10.206;2022-12-29T09:47:43;3.30;;;1.00;;
45728;SDS011;31439;53.512;10.206;2022-12-29T09:50:28;4.80;;;1.10;;
45728;SDS011;31439;53.512;10.206;2022-12-29T09:55:43;3.70;;;1.08;;
45728;SDS011;31439;53.512;10.206;2022-12-29T10:03:32;5.85;;;1.20;;
45728;SDS011;31439;53.512;10.206;2022-12-29T10:06:17;3.15;;;1.10;;
45728;SDS011;31439;53.512;10.206;2022-12-29T10:11:57;4.30;;;1.25;;
45728;SDS011;31439;53.512;10.206;2022-12-29T10:24:43;5.90;;;1.45;;
45728;SDS011;31439;53.512;10.206;2022-12-29T10:27:12;3.35;;;0.98;;
45728;SDS011;31439;53.512;10.206;2022-12-29T10:29:41;5.72;;;1.20;;
45728;SDS011;31439;53.512;10.206;2022-12-29T10:32:32;5.00;;;1.15;;
45728;SDS011;31439;53.512;10.206;2022-12-29T10:35:14;5.97;;;1.40;;
45728;SDS011;31439;53.512;10.206;2022-12-29T10:43:24;3.38;;;1.00;;
45728;SDS011;31439;53.512;10.206;2022-12-29T10:45:54;6.28;;;1.58;;
45728;SDS011;31439;53.512;10.206;2022-12-29T10:48:31;5.75;;;1.30;;
45728;SDS011;31439;53.512;10.206;2022-12-29T10:50:58;6.30;;;1.75;;
45728;SDS011;31439;53.512;10.206;2022-12-29T10:53:29;4.57;;;1.20;;
45728;SDS011;31439;53.512;10.206;2022-12-29T10:56:27;5.72;;;1.25;;
45728;SDS011;31439;53.512;10.206;2022-12-29T10:59:31;5.28;;;1.30;;
45728;SDS011;31439;53.512;10.206;2022-12-29T11:04:45;4.20;;;1.27;;
45728;SDS011;31439;53.512;10.206;2022-12-29T11:07:19;7.15;;;1.27;;
45728;SDS011;31439;53.512;10.206;2022-12-29T11:09:46;5.88;;;1.30;;
45728;SDS011;31439;53.512;10.206;2022-12-29T11:12:28;5.50;;;1.33;;
45728;SDS011;31439;53.512;10.206;2022-12-29T11:17:50;4.57;;;1.50;;
45728;SDS011;31439;53.512;10.206;2022-12-29T11:22:50;6.53;;;1.30;;
45728;SDS011;31439;53.512;10.206;2022-12-29T11:25:17;7.18;;;1.13;;
45728;SDS011;31439;53.512;10.206;2022-12-29T11:27:54;5.63;;;1.23;;
45728;SDS011;31439;53.512;10.206;2022-12-29T11:30:38;5.22;;;1.30;;
45728;SDS011;31439;53.512;10.206;2022-12-29T11:33:04;5.68;;;1.20;;
45728;SDS011;31439;53.512;10.206;2022-12-29T11:37:57;2.03;;;0.90;;
45728;SDS011;31439;53.512;10.206;2022-12-29T11:40:24;6.07;;;1.42;;
45728;SDS011;31439;53.512;10.206;2022-12-29T11:45:27;5.97;;;1.23;;
45728;SDS011;31439;53.512;10.206;2022-12-29T11:47:58;5.65;;;1.35;;
45728;SDS011;31439;53.512;10.206;2022-12-29T11:50:37;5.65;;;1.50;;
45728;SDS011;31439;53.512;10.206;2022-12-29T11:53:05;4.70;;;1.00;;
45728;SDS011;31439;53.512;10.206;2022-12-29T11:55:39;4.05;;;1.00;;
45728;SDS011;31439;53.512;10.206;2022-12-29T11:58:05;4.20;;;1.05;;
45728;SDS011;31439;53.512;10.206;2022-12-29T12:00:32;6.05;;;1.42;;
45728;SDS011;31439;53.512;10.206;2022-12-29T12:03:07;4.25;;;1.05;;
45728;SDS011;31439;53.512;10.206;2022-12-29T12:05:44;4.53;;;1.10;;
45728;SDS011;31439;53.512;10.206;2022-12-29T12:16:46;6.13;;;1.20;;
45728;SDS011;31439;53.512;10.206;2022-12-29T12:22:07;6.38;;;2.20;;
45728;SDS011;31439;53.512;10.206;2022-12-29T12:24:48;5.82;;;1.50;;
45728;SDS011;31439;53.512;10.206;2022-12-29T12:30:23;5.75;;;1.10;;
45728;SDS011;31439;53.512;10.206;2022-12-29T12:38:19;6.47;;;1.48;;
45728;SDS011;31439;53.512;10.206;2022-12-29T12:41:00;7.78;;;1.83;;
45728;SDS011;31439;53.512;10.206;2022-12-29T12:58:25;10.25;;;1.60;;
45728;SDS011;31439;53.512;10.206;2022-12-29T13:09:26;6.63;;;1.73;;
45728;SDS011;31439;53.512;10.206;2022-12-29T13:22:44;6.35;;;1.45;;
45728;SDS011;31439;53.512;10.206;2022-12-29T13:28:25;3.90;;;1.25;;
45728;SDS011;31439;53.512;10.206;2022-12-29T13:36:33;4.15;;;1.17;;
45728;SDS011;31439;53.512;10.206;2022-12-29T13:39:12;5.30;;;1.30;;
45728;SDS011;31439;53.512;10.206;2022-12-29T13:41:58;6.57;;;1.40;;
45728;SDS011;31439;53.512;10.206;2022-12-29T13:44:35;6.15;;;1.30;;
45728;SDS011;31439;53.512;10.206;2022-12-29T13:47:49;4.88;;;1.27;;
45728;SDS011;31439;53.512;10.206;2022-12-29T13:50:27;5.43;;;1.30;;
45728;SDS011;31439;53.512;10.206;2022-12-29T13:55:37;5.13;;;1.40;;
45728;SDS011;31439;53.512;10.206;2022-12-29T14:03:57;6.93;;;1.65;;
45728;SDS011;31439;53.512;10.206;2022-12-29T14:08:57;5.05;;;1.13;;
45728;SDS011;31439;53.512;10.206;2022-12-29T14:11:35;6.80;;;1.50;;
45728;SDS011;31439;53.512;10.206;2022-12-29T14:16:45;6.18;;;1.48;;
45728;SDS011;31439;53.512;10.206;2022-12-29T14:19:13;5.65;;;1.48;;
45728;SDS011;31439;53.512;10.206;2022-12-29T14:21:49;5.65;;;1.20;;
45728;SDS011;31439;53.512;10.206;2022-12-29T14:24:26;4.72;;;1.25;;
45728;SDS011;31439;53.512;10.206;2022-12-29T14:26:51;5.22;;;1.10;;
45728;SDS011;31439;53.512;10.206;2022-12-29T14:31:48;5.78;;;1.50;;
45728;SDS011;31439;53.512;10.206;2022-12-29T14:34:15;5.88;;;1.00;;
45728;SDS011;31439;53.512;10.206;2022-12-29T14:44:34;7.32;;;1.08;;
45728;SDS011;31439;53.512;10.206;2022-12-29T14:47:11;5.43;;;1.30;;
45728;SDS011;31439;53.512;10.206;2022-12-29T14:52:32;5.60;;;1.67;;
45728;SDS011;31439;53.512;10.206;2022-12-29T14:58:19;4.35;;;1.20;;
45728;SDS011;31439;53.512;10.206;2022-12-29T15:01:15;5.40;;;1.30;;
45728;SDS011;31439;53.512;10.206;2022-12-29T15:03:51;3.10;;;1.13;;
45728;SDS011;31439;53.512;10.206;2022-12-29T15:06:22;6.40;;;1.50;;
45728;SDS011;31439;53.512;10.206;2022-12-29T15:09:04;5.85;;;1.30;;
45728;SDS011;31439;53.512;10.206;2022-12-29T15:14:28;3.90;;;1.13;;
45728;SDS011;31439;53.512;10.206;2022-12-29T15:16:53;6.35;;;1.30;;
45728;SDS011;31439;53.512;10.206;2022-12-29T15:19:22;3.90;;;1.20;;
45728;SDS011;31439;53.512;10.206;2022-12-29T15:21:49;5.10;;;1.40;;
45728;SDS011;31439;53.512;10.206;2022-12-29T15:24:15;3.40;;;1.10;;
45728;SDS011;31439;53.512;10.206;2022-12-29T15:26:51;6.25;;;1.77;;
45728;SDS011;31439;53.512;10.206;2022-12-29T15:29:38;4.93;;;1.20;;
45728;SDS011;31439;53.512;10.206;2022-12-29T15:34:40;8.05;;;1.55;;
45728;SDS011;31439;53.512;10.206;2022-12-29T15:37:07;7.22;;;2.00;;
45728;SDS011;31439;53.512;10.206;2022-12-29T15:39:33;6.40;;;2.10;;
45728;SDS011;31439;53.512;10.206;2022-12-29T15:42:01;10.20;;;2.00;;
45728;SDS011;31439;53.512;10.206;2022-12-29T15:44:39;5.97;;;1.80;;
45728;SDS011;31439;53.512;10.206;2022-12-29T15:47:18;5.47;;;1.65;;
45728;SDS011;31439;53.512;10.206;2022-12-29T15:49:50;7.05;;;1.65;;
45728;SDS011;31439;53.512;10.206;2022-12-29T15:52:19;11.07;;;2.70;;
45728;SDS011;31439;53.512;10.206;2022-12-29T15:54:47;8.02;;;1.80;;
45728;SDS011;31439;53.512;10.206;2022-12-29T15:57:29;8.68;;;2.00;;
45728;SDS011;31439;53.512;10.206;2022-12-29T16:00:01;5.85;;;1.98;;
45728;SDS011;31439;53.512;10.206;2022-12-29T16:02:27;7.90;;;2.13;;
45728;SDS011;31439;53.512;10.206;2022-12-29T16:04:53;6.72;;;1.70;;
45728;SDS011;31439;53.512;10.206;2022-12-29T16:07:24;6.85;;;2.03;;
45728;SDS011;31439;53.512;10.206;2022-12-29T16:09:56;7.50;;;2.80;;
45728;SDS011;31439;53.512;10.206;2022-12-29T16:12:31;8.00;;;2.10;;
45728;SDS011;31439;53.512;10.206;2022-12-29T16:14:59;6.63;;;1.80;;
45728;SDS011;31439;53.512;10.206;2022-12-29T16:17:29;9.23;;;2.30;;
45728;SDS011;31439;53.512;10.206;2022-12-29T16:20:15;5.70;;;1.98;;
45728;SDS011;31439;53.512;10.206;2022-12-29T16:22:52;7.78;;;2.15;;
45728;SDS011;31439;53.512;10.206;2022-12-29T16:28:02;4.72;;;1.92;;
45728;SDS011;31439;53.512;10.206;2022-12-29T16:30:42;8.57;;;2.58;;
45728;SDS011;31439;53.512;10.206;2022-12-29T16:36:21;7.28;;;2.38;;
45728;SDS011;31439;53.512;10.206;2022-12-29T16:38:46;10.43;;;2.55;;
45728;SDS011;31439;53.512;10.206;2022-12-29T16:41:28;7.13;;;2.63;;
45728;SDS011;31439;53.512;10.206;2022-12-29T16:46:56;7.85;;;2.70;;
45728;SDS011;31439;53.512;10.206;2022-12-29T16:49:25;8.35;;;2.05;;
45728;SDS011;31439;53.512;10.206;2022-12-29T16:51:52;8.65;;;2.28;;
45728;SDS011;31439;53.512;10.206;2022-12-29T16:54:23;7.40;;;2.25;;
45728;SDS011;31439;53.512;10.206;2022-12-29T16:56:57;7.63;;;1.88;;
45728;SDS011;31439;53.512;10.206;2022-12-29T17:02:00;8.95;;;2.75;;
45728;SDS011;31439;53.512;10.206;2022-12-29T17:04:32;7.47;;;2.53;;
45728;SDS011;31439;53.512;10.206;2022-12-29T17:06:57;5.13;;;2.30;;
45728;SDS011;31439;53.512;10.206;2022-12-29T17:09:24;10.30;;;2.65;;
45728;SDS011;31439;53.512;10.206;2022-12-29T17:11:52;10.63;;;2.83;;
45728;SDS011;31439;53.512;10.206;2022-12-29T17:17:05;11.13;;;2.37;;
45728;SDS011;31439;53.512;10.206;2022-12-29T17:19:54;7.55;;;2.83;;
45728;SDS011;31439;53.512;10.206;2022-12-29T17:22:26;7.75;;;3.05;;
45728;SDS011;31439;53.512;10.206;2022-12-29T17:24:53;10.18;;;3.85;;
45728;SDS011;31439;53.512;10.206;2022-12-29T17:27:36;8.27;;;3.20;;
45728;SDS011;31439;53.512;10.206;2022-12-29T17:32:40;10.20;;;3.25;;
45728;SDS011;31439;53.512;10.206;2022-12-29T17:35:17;13.32;;;3.30;;
45728;SDS011;31439;53.512;10.206;2022-12-29T17:37:44;8.70;;;3.15;;
45728;SDS011;31439;53.512;10.206;2022-12-29T17:40:17;9.38;;;2.60;;
45728;SDS011;31439;53.512;10.206;2022-12-29T17:42:54;6.30;;;2.53;;
45728;SDS011;31439;53.512;10.206;2022-12-29T17:45:28;6.43;;;2.30;;
45728;SDS011;31439;53.512;10.206;2022-12-29T17:47:55;6.50;;;2.80;;
45728;SDS011;31439;53.512;10.206;2022-12-29T17:50:24;7.97;;;2.70;;
45728;SDS011;31439;53.512;10.206;2022-12-29T17:52:55;9.35;;;2.50;;
45728;SDS011;31439;53.512;10.206;2022-12-29T17:55:27;7.20;;;2.53;;
45728;SDS011;31439;53.512;10.206;2022-12-29T17:57:53;7.78;;;2.60;;
45728;SDS011;31439;53.512;10.206;2022-12-29T18:00:20;10.05;;;2.47;;
45728;SDS011;31439;53.512;10.206;2022-12-29T18:02:54;8.82;;;2.92;;
45728;SDS011;31439;53.512;10.206;2022-12-29T18:05:25;7.85;;;2.97;;